Norman, Indiana
Current Conditions -  °F | °C
As of 2:53 PM on Tuesday 21 Oct 2014 (Local Time) from KBMG Reporting Station
Overcast Overcast  
Wind Chill: 56°   Ceiling: 4700
Heat Index: 56°   Visibility: 10mi
Dew Point: 40°   Wind: 8mph
Humidity: 55%   Direction: 360°N
Pressure: 30.09"   Gusts: NA
Location:  38.95°N, 86.27°W
Report Text: KBMG 211853Z 36007KT 10SM SCT040 OVC047 13/04 A3009 RMK AO2 SLP190 T01330044 $
Loading
Personal Weather Stations






























Interactive Weather Map
Tropical Storm Tracking
New forecast layout! Learn more

10-Day Weather Forecast

Advertisements
Track Severe Weather on mobile